createdAt,value
2023-03-26T00:03:29.804Z,9.70
2023-03-26T00:07:30.766Z,9.10
2023-03-26T00:11:32.123Z,8.80
2023-03-26T00:15:35.115Z,9.20
2023-03-26T00:19:37.391Z,9.30
2023-03-26T00:23:38.837Z,10.00
2023-03-26T00:27:44.985Z,9.40
2023-03-26T00:31:45.997Z,9.70
2023-03-26T00:35:53.399Z,9.30
2023-03-26T00:39:57.430Z,9.20
2023-03-26T00:44:00.292Z,9.20
2023-03-26T00:48:02.756Z,9.10
2023-03-26T00:52:04.310Z,9.50
2023-03-26T00:56:06.627Z,8.90
2023-03-26T01:00:12.573Z,9.00
2023-03-26T01:04:25.469Z,8.90
2023-03-26T01:08:32.344Z,9.80
2023-03-26T01:12:33.535Z,9.60
2023-03-26T01:16:38.365Z,9.70
2023-03-26T01:20:44.092Z,9.50
2023-03-26T01:24:47.331Z,10.20
2023-03-26T01:28:50.622Z,10.10
2023-03-26T01:33:13.475Z,9.90
2023-03-26T01:37:21.628Z,10.10
2023-03-26T01:41:31.730Z,9.80
2023-03-26T01:45:36.648Z,9.90
2023-03-26T01:49:37.774Z,9.90
2023-03-26T01:53:47.141Z,10.20
2023-03-26T01:58:04.021Z,10.50
2023-03-26T02:02:11.655Z,10.20
2023-03-26T02:06:33.849Z,10.80
2023-03-26T02:10:38.159Z,10.10
2023-03-26T02:14:39.280Z,10.20
2023-03-26T02:18:40.590Z,10.50
2023-03-26T02:22:43.734Z,10.10
2023-03-26T02:26:45.213Z,11.20
2023-03-26T02:30:46.943Z,10.50
2023-03-26T02:34:49.960Z,11.10
2023-03-26T02:38:51.168Z,11.20
2023-03-26T02:42:52.314Z,11.40
2023-03-26T02:46:53.850Z,11.70
2023-03-26T02:50:55.009Z,11.10
2023-03-26T02:54:56.215Z,11.80
2023-03-26T02:58:57.373Z,12.00
2023-03-26T03:02:58.908Z,12.10
2023-03-26T03:07:00.341Z,11.90
2023-03-26T03:11:04.666Z,11.90
2023-03-26T03:15:07.117Z,11.50
2023-03-26T03:19:08.363Z,11.30
2023-03-26T03:23:09.330Z,10.90
2023-03-26T03:27:10.410Z,10.40
2023-03-26T03:31:11.529Z,10.50
2023-03-26T03:35:13.170Z,10.70
2023-03-26T03:39:14.960Z,10.70
2023-03-26T03:43:16.258Z,11.00
2023-03-26T03:47:17.308Z,10.20
2023-03-26T03:51:18.508Z,10.40
2023-03-26T03:55:19.612Z,10.70
2023-03-26T03:59:20.836Z,10.80
2023-03-26T04:03:33.545Z,10.40
2023-03-26T04:07:25.566Z,10.60
2023-03-26T04:11:26.692Z,10.10
2023-03-26T04:15:27.846Z,11.00
2023-03-26T04:19:28.840Z,11.30
2023-03-26T04:23:30.932Z,11.20
2023-03-26T04:27:34.813Z,11.40
2023-03-26T04:31:37.660Z,11.80
2023-03-26T04:35:40.767Z,11.70
2023-03-26T04:39:41.771Z,11.50
2023-03-26T04:43:44.832Z,11.50
2023-03-26T04:47:47.730Z,11.60
2023-03-26T04:51:48.828Z,11.80
2023-03-26T04:56:02.030Z,11.60
2023-03-26T05:00:10.031Z,11.00
2023-03-26T05:04:12.836Z,10.70
2023-03-26T05:08:13.944Z,10.80
2023-03-26T05:12:15.924Z,10.90
2023-03-26T05:16:17.234Z,11.30
2023-03-26T05:20:21.705Z,11.30
2023-03-26T05:24:23.973Z,11.20
2023-03-26T05:28:25.932Z,11.40
2023-03-26T05:32:27.040Z,11.50
2023-03-26T05:36:28.679Z,11.60
2023-03-26T05:40:29.643Z,11.90
2023-03-26T05:44:30.624Z,11.90
2023-03-26T05:48:31.753Z,12.10
2023-03-26T05:52:33.043Z,11.90
2023-03-26T05:56:34.160Z,10.90
2023-03-26T06:00:37.135Z,11.30
2023-03-26T06:04:40.359Z,11.70
2023-03-26T06:08:42.918Z,11.80
2023-03-26T06:12:43.863Z,11.20
2023-03-26T06:16:44.991Z,11.70
2023-03-26T06:20:46.685Z,10.70
2023-03-26T06:24:47.821Z,12.00
2023-03-26T06:28:48.949Z,12.00
2023-03-26T06:32:50.116Z,12.10
2023-03-26T06:36:52.128Z,12.00
2023-03-26T06:40:53.378Z,12.20
2023-03-26T06:44:54.529Z,11.40
2023-03-26T06:48:55.479Z,9.60
2023-03-26T06:52:56.412Z,9.90
2023-03-26T06:56:59.184Z,11.00
2023-03-26T07:01:00.395Z,10.90
2023-03-26T07:05:01.439Z,10.90
2023-03-26T07:09:02.830Z,9.90
2023-03-26T07:13:03.946Z,10.10
2023-03-26T07:17:05.174Z,10.70
2023-03-26T07:21:07.162Z,9.90
2023-03-26T07:25:09.662Z,9.90
2023-03-26T07:29:31.221Z,9.70
2023-03-26T07:33:38.966Z,10.00
2023-03-26T07:37:59.264Z,9.70
2023-03-26T07:42:22.330Z,9.90
2023-03-26T07:46:33.297Z,10.10
2023-03-26T07:50:34.794Z,10.10
2023-03-26T07:54:36.138Z,10.30
2023-03-26T07:59:05.294Z,9.90
2023-03-26T08:03:10.230Z,9.30
2023-03-26T08:07:33.391Z,10.00
2023-03-26T08:11:53.223Z,10.00
2023-03-26T08:16:02.833Z,10.00
2023-03-26T08:20:19.914Z,10.30
2023-03-26T08:24:30.962Z,9.20
2023-03-26T08:28:38.855Z,9.60
2023-03-26T08:32:40.200Z,9.40
2023-03-26T08:36:41.728Z,9.50
2023-03-26T08:40:58.534Z,9.60
2023-03-26T08:45:18.204Z,9.70
2023-03-26T08:49:48.769Z,10.30
2023-03-26T08:54:02.967Z,9.90
2023-03-26T08:58:17.021Z,10.80
2023-03-26T09:02:38.437Z,10.20
2023-03-26T09:06:52.268Z,9.60
2023-03-26T09:10:57.331Z,9.90
2023-03-26T09:15:05.182Z,9.30
2023-03-26T09:19:29.349Z,9.70
2023-03-26T09:23:55.323Z,10.10
2023-03-26T09:28:22.890Z,9.70
2023-03-26T09:32:52.841Z,10.10
2023-03-26T09:37:01.534Z,9.00
2023-03-26T09:41:12.324Z,8.00
2023-03-26T09:45:17.176Z,8.30
2023-03-26T09:49:53.905Z,8.60
2023-03-26T09:54:31.791Z,9.00
2023-03-26T09:58:51.537Z,8.10
2023-03-26T10:03:04.872Z,8.30
2023-03-26T10:07:18.943Z,7.60
2023-03-26T10:11:43.183Z,8.30
2023-03-26T10:15:59.644Z,8.60
2023-03-26T10:20:20.786Z,8.90
2023-03-26T10:24:42.034Z,9.30
2023-03-26T10:28:56.237Z,9.60
2023-03-26T10:33:20.511Z,9.70
2023-03-26T10:37:31.178Z,9.30
2023-03-26T10:41:45.064Z,9.70
2023-03-26T10:45:59.008Z,10.00
2023-03-26T10:50:12.848Z,10.40
2023-03-26T10:54:20.436Z,11.10
2023-03-26T10:58:28.958Z,12.10
2023-03-26T11:02:33.730Z,11.80
2023-03-26T11:06:44.416Z,11.80
2023-03-26T11:10:49.572Z,11.60
2023-03-26T11:15:15.852Z,10.80
2023-03-26T11:19:27.221Z,11.30
2023-03-26T11:23:41.019Z,11.40
2023-03-26T11:28:12.213Z,11.10
2023-03-26T11:32:23.238Z,11.10
2023-03-26T11:36:30.180Z,11.60
2023-03-26T11:40:45.719Z,11.30
2023-03-26T11:45:02.395Z,12.30
2023-03-26T11:49:08.623Z,12.40
2023-03-26T11:53:12.796Z,13.00
2023-03-26T11:57:17.651Z,13.20
2023-03-26T12:01:30.208Z,13.80
2023-03-26T12:05:33.207Z,13.30
2023-03-26T12:09:34.339Z,13.50
2023-03-26T12:13:45.353Z,13.60
2023-03-26T12:17:55.797Z,14.00
2023-03-26T12:21:56.883Z,13.40
2023-03-26T12:26:20.108Z,13.80
2023-03-26T12:30:27.605Z,13.80
2023-03-26T12:34:38.903Z,13.80
2023-03-26T12:38:41.845Z,13.80
2023-03-26T12:44:47.212Z,13.70
2023-03-26T12:47:55.382Z,13.00
2023-03-26T12:51:13.808Z,12.80
2023-03-26T12:55:24.886Z,12.70
2023-03-26T12:59:46.131Z,13.60
2023-03-26T13:04:05.369Z,12.40
2023-03-26T13:08:22.126Z,11.60
2023-03-26T13:12:33.885Z,12.90
2023-03-26T13:17:04.573Z,13.90
2023-03-26T13:21:42.998Z,13.50
2023-03-26T13:26:07.076Z,13.00
2023-03-26T13:30:26.386Z,13.60
2023-03-26T13:34:37.690Z,15.70
2023-03-26T13:38:58.917Z,16.70
2023-03-26T13:43:01.995Z,14.40
2023-03-26T13:47:06.884Z,16.50
2023-03-26T13:51:26.913Z,15.60
2023-03-26T13:55:44.170Z,14.20
2023-03-26T13:59:49.043Z,15.50
2023-03-26T14:03:59.591Z,16.40
2023-03-26T14:08:16.973Z,16.60
2023-03-26T14:12:22.154Z,14.50
2023-03-26T14:16:26.993Z,13.80
2023-03-26T14:20:55.537Z,13.70
2023-03-26T14:25:00.609Z,13.00
2023-03-26T14:29:41.333Z,11.60
2023-03-26T14:34:01.782Z,10.50
2023-03-26T14:38:15.977Z,12.20
2023-03-26T14:42:23.948Z,13.50
2023-03-26T14:46:55.637Z,13.60
2023-03-26T14:51:13.175Z,14.00
2023-03-26T14:55:30.068Z,14.10
2023-03-26T14:59:57.747Z,13.30
2023-03-26T15:04:36.313Z,9.70
2023-03-26T15:08:59.201Z,9.50
2023-03-26T15:13:06.819Z,9.30
2023-03-26T15:17:20.645Z,8.60
2023-03-26T15:21:43.871Z,9.30
2023-03-26T15:26:07.072Z,9.70
2023-03-26T15:30:27.847Z,8.10
2023-03-26T15:34:54.026Z,7.70
2023-03-26T15:39:27.045Z,7.20
2023-03-26T15:43:54.889Z,7.30
2023-03-26T15:48:02.335Z,8.40
2023-03-26T15:52:23.784Z,7.90
2023-03-26T15:56:51.527Z,8.50
2023-03-26T16:01:19.932Z,9.30
2023-03-26T16:05:31.557Z,8.30
2023-03-26T16:09:49.248Z,8.30
2023-03-26T16:14:12.659Z,8.40
2023-03-26T16:18:19.515Z,8.80
2023-03-26T16:22:43.524Z,8.60
2023-03-26T16:27:05.899Z,8.90
2023-03-26T16:31:36.483Z,9.40
2023-03-26T16:35:39.237Z,9.00
2023-03-26T16:39:43.442Z,10.50
2023-03-26T16:44:09.835Z,10.70
2023-03-26T16:48:17.484Z,9.70
2023-03-26T16:52:25.068Z,9.40
2023-03-26T16:56:38.557Z,8.60
2023-03-26T17:01:15.324Z,9.30
2023-03-26T17:05:25.679Z,8.90
2023-03-26T17:09:33.740Z,10.20
2023-03-26T17:13:58.031Z,9.00
2023-03-26T17:18:22.471Z,9.90
2023-03-26T17:22:36.232Z,10.00
2023-03-26T17:27:00.331Z,9.90
2023-03-26T17:31:25.752Z,9.70
2023-03-26T17:35:39.616Z,9.80
2023-03-26T17:39:47.093Z,9.90
2023-03-26T17:43:50.795Z,9.40
2023-03-26T17:48:21.249Z,9.30
2023-03-26T17:52:25.451Z,8.70
2023-03-26T17:56:29.375Z,8.80
2023-03-26T18:00:34.837Z,9.30
2023-03-26T18:04:39.359Z,9.10
2023-03-26T18:09:00.548Z,9.00
2023-03-26T18:13:26.537Z,8.90
2023-03-26T18:17:31.435Z,8.30
2023-03-26T18:21:35.690Z,8.50
2023-03-26T18:25:37.809Z,9.00
2023-03-26T18:30:01.962Z,9.10
2023-03-26T18:34:04.657Z,8.90
2023-03-26T18:38:06.107Z,9.10
2023-03-26T18:42:10.942Z,8.80
2023-03-26T18:46:14.181Z,8.40
2023-03-26T18:50:18.329Z,9.10
2023-03-26T18:54:20.789Z,8.90
2023-03-26T18:58:36.392Z,9.30
2023-03-26T19:02:38.472Z,9.70
2023-03-26T19:06:42.208Z,9.40
2023-03-26T19:10:46.888Z,9.70
2023-03-26T19:14:56.734Z,9.40
2023-03-26T19:18:59.752Z,9.20
2023-03-26T19:23:00.866Z,9.60
2023-03-26T19:27:03.105Z,9.70
2023-03-26T19:31:11.845Z,9.40
2023-03-26T19:35:22.199Z,8.90
2023-03-26T19:39:36.537Z,8.60
2023-03-26T19:43:28.904Z,7.80
2023-03-26T19:51:45.095Z,8.10
2023-03-26T19:55:55.130Z,8.20
2023-03-26T19:59:56.755Z,8.00
2023-03-26T20:04:06.537Z,7.70
2023-03-26T20:08:13.989Z,7.50
2023-03-26T20:12:15.125Z,7.60
2023-03-26T20:16:32.957Z,7.30
2023-03-26T20:20:36.033Z,7.00
2023-03-26T20:24:37.074Z,6.60
2023-03-26T20:28:47.298Z,6.10
2023-03-26T20:32:43.183Z,6.30
2023-03-26T20:36:46.067Z,5.90
2023-03-26T20:40:48.535Z,6.10
2023-03-26T20:44:49.717Z,6.30
2023-03-26T20:48:51.320Z,6.30
2023-03-26T20:52:52.889Z,6.00
2023-03-26T20:56:54.304Z,6.00
2023-03-26T21:00:59.639Z,6.00
2023-03-26T21:05:00.919Z,5.60
2023-03-26T21:09:03.392Z,5.50
2023-03-26T21:13:17.089Z,5.80
2023-03-26T21:17:21.441Z,5.90
2023-03-26T21:21:45.477Z,5.90
2023-03-26T21:25:52.298Z,6.00
2023-03-26T21:29:54.362Z,6.00
2023-03-26T21:33:56.379Z,6.40
2023-03-26T21:38:00.815Z,6.90
2023-03-26T21:42:05.003Z,6.10
2023-03-26T21:46:06.066Z,5.50
2023-03-26T21:50:08.645Z,5.60
2023-03-26T21:54:25.278Z,5.10
2023-03-26T21:58:55.462Z,4.80
2023-03-26T22:03:03.368Z,4.80
2023-03-26T22:07:14.122Z,5.10
2023-03-26T22:11:15.133Z,5.10
2023-03-26T22:15:17.556Z,5.20
2023-03-26T22:19:18.569Z,5.10
2023-03-26T22:23:20.340Z,4.80
2023-03-26T22:27:21.493Z,5.00
2023-03-26T22:31:26.319Z,5.00
2023-03-26T22:35:27.514Z,4.70
2023-03-26T22:39:28.760Z,5.00
2023-03-26T22:43:29.979Z,5.00
2023-03-26T22:47:32.926Z,4.90
2023-03-26T22:51:34.068Z,4.90
2023-03-26T22:55:35.851Z,4.80
2023-03-26T22:59:36.972Z,5.70
2023-03-26T23:03:38.791Z,4.80
2023-03-26T23:07:41.710Z,4.30
2023-03-26T23:11:42.874Z,4.50
2023-03-26T23:15:44.639Z,4.30
2023-03-26T23:19:46.083Z,5.00
2023-03-26T23:23:48.778Z,4.00
2023-03-26T23:27:50.082Z,4.10
2023-03-26T23:31:52.356Z,4.20
2023-03-26T23:35:59.072Z,4.80
2023-03-26T23:40:00.246Z,4.30
2023-03-26T23:44:01.536Z,3.90
2023-03-26T23:48:03.652Z,3.80
2023-03-26T23:52:05.193Z,3.80
2023-03-26T23:56:06.748Z,3.60
